Wednesday, October 17, 2018, 4:02 AM EDT
Back to Local

KJYO, Leesburg / Godfrey

Location: Leesburg, VA, United States Lat: 39.083
Local Time: 4:02 AM EDT ( 8:02 GMT) Lon: -77.567
Time Zone: US/Eastern Elev: 390 ft

Show me the last for .
Show Decoded

2018-10-17 03:35 METAR KJYO 170735Z AUTO 00000KT 10SM CLR 08/08 A3006 RMK AO2 =
2018-10-17 03:15 METAR KJYO 170715Z AUTO 00000KT 10SM CLR 09/09 A3006 RMK AO2 =
2018-10-17 02:55 METAR KJYO 170655Z AUTO 00000KT 10SM CLR 10/10 A3006 RMK AO2 =
2018-10-17 02:35 METAR KJYO 170635Z AUTO 00000KT 10SM CLR 10/10 A3007 RMK AO2 =
2018-10-17 02:15 METAR KJYO 170615Z AUTO 00000KT 10SM CLR 10/10 A3008 RMK AO2 =
2018-10-17 01:55 METAR KJYO 170555Z AUTO 00000KT 10SM CLR 10/10 A3009 RMK AO2 =
2018-10-17 01:35 METAR KJYO 170535Z AUTO 00000KT 10SM CLR 10/10 A3009 RMK AO2 =
2018-10-17 01:15 METAR KJYO 170515Z AUTO 26003KT 10SM SCT040 10/10 A3009 RMK AO2 =
2018-10-17 00:55 METAR KJYO 170455Z AUTO 00000KT 10SM BKN042 11/11 A3010 RMK AO2 =
2018-10-16 23:55 METAR KJYO 170355Z AUTO 22003KT 10SM CLR 11/11 A3011 RMK AO2 =
2018-10-16 23:35 METAR KJYO 170335Z AUTO 22003KT 10SM SCT042 12/11 A3011 RMK AO2 =
2018-10-16 23:15 METAR KJYO 170315Z AUTO 22003KT 10SM SCT042 12/11 A3011 RMK AO2 =
2018-10-16 22:55 METAR KJYO 170255Z AUTO 20003KT 10SM BKN042 12/11 A3011 RMK AO2 =
2018-10-16 22:35 METAR KJYO 170235Z AUTO 23005KT 10SM OVC042 12/11 A3011 RMK AO2 =
2018-10-16 22:15 METAR KJYO 170215Z AUTO 23005KT 10SM OVC046 12/11 A3012 RMK AO2 =
2018-10-16 21:55 METAR KJYO 170155Z AUTO 21005KT 10SM BKN048 BKN050 12/11 A3012 RMK AO2 =
2018-10-16 21:35 METAR KJYO 170135Z AUTO 21006KT 10SM BKN046 BKN055 12/10 A3012 RMK AO2 =
2018-10-16 21:15 METAR KJYO 170115Z AUTO 20004KT 10SM OVC046 12/10 A3013 RMK AO2 =
2018-10-16 20:55 METAR KJYO 170055Z AUTO 18003KT 10SM OVC046 12/10 A3012 RMK AO2 =
2018-10-16 20:35 METAR KJYO 170035Z AUTO 00000KT 10SM BKN046 12/10 A3012 RMK AO2 =
2018-10-16 20:15 METAR KJYO 170015Z AUTO 00000KT 10SM CLR 12/10 A3012 RMK AO2 =
2018-10-16 19:55 METAR KJYO 162355Z AUTO 20004KT 10SM CLR 12/10 A3012 RMK AO2 =
2018-10-16 19:35 METAR KJYO 162335Z AUTO 21003KT 10SM CLR 12/10 A3013 RMK AO2 =
2018-10-16 19:15 METAR KJYO 162315Z AUTO 20003KT 10SM CLR 13/10 A3013 RMK AO2 =
2018-10-16 18:55 METAR KJYO 162255Z AUTO 19003KT 10SM CLR 13/09 A3012 RMK AO2 =
2018-10-16 18:35 METAR KJYO 162235Z AUTO 00000KT 10SM CLR 13/08 A3013 RMK AO2 =
2018-10-16 18:15 METAR KJYO 162215Z AUTO 19003KT 10SM CLR 14/08 A3012 RMK AO2 =
2018-10-16 17:55 METAR KJYO 162155Z AUTO 20003KT 10SM CLR 15/08 A3011 RMK AO2 =
2018-10-16 17:35 METAR KJYO 162135Z AUTO 20003KT 10SM CLR 15/08 A3011 RMK AO2 =
2018-10-16 17:15 METAR KJYO 162115Z AUTO 22003KT 10SM CLR 15/07 A3013 RMK AO2 =
2018-10-16 16:55 METAR KJYO 162055Z AUTO 27004KT 10SM CLR 15/07 A3013 RMK AO2 =
2018-10-16 16:35 METAR KJYO 162035Z AUTO 27004KT 10SM CLR 15/07 A3013 RMK AO2 =
2018-10-16 16:15 METAR KJYO 162015Z AUTO 27003KT 10SM CLR 15/06 A3014 RMK AO2 =
2018-10-16 15:55 METAR KJYO 161955Z AUTO 34004KT 10SM CLR 16/06 A3014 RMK AO2 P0002 =
2018-10-16 15:35 METAR KJYO 161935Z AUTO 32005KT 7SM CLR 15/06 A3014 RMK AO2 =
2018-10-16 15:15 METAR KJYO 161915Z AUTO 35005KT 10SM CLR 15/06 A3015 RMK AO2 =
2018-10-16 14:55 METAR KJYO 161855Z AUTO 34006KT 10SM CLR 15/06 A3015 RMK AO2 =
2018-10-16 14:35 METAR KJYO 161835Z AUTO 32008KT 10SM CLR 15/06 A3015 RMK AO2 =
2018-10-16 14:15 METAR KJYO 161815Z AUTO 33005KT 10SM CLR 15/06 A3016 RMK AO2 =
2018-10-16 13:55 METAR KJYO 161755Z AUTO 01004KT 10SM CLR 15/06 A3019 RMK AO2 =
2018-10-16 13:35 METAR KJYO 161735Z AUTO 34004KT 10SM CLR 15/06 A3020 RMK AO2 =
2018-10-16 13:15 METAR KJYO 161715Z AUTO 01004KT 10SM CLR 14/06 A3020 RMK AO2 =
2018-10-16 12:55 METAR KJYO 161655Z AUTO 34008KT 10SM CLR 13/06 A3021 RMK AO2 =
2018-10-16 12:35 METAR KJYO 161635Z AUTO 34007KT 10SM CLR 13/06 A3022 RMK AO2 =
2018-10-16 12:15 METAR KJYO 161615Z AUTO 34005KT 10SM CLR 13/06 A3024 RMK AO2 =
2018-10-16 11:55 METAR KJYO 161555Z AUTO 33009KT 10SM CLR 13/06 A3025 RMK AO2 =
2018-10-16 11:35 METAR KJYO 161535Z AUTO 35006KT 10SM CLR 13/06 A3025 RMK AO2 =
2018-10-16 11:15 METAR KJYO 161515Z AUTO 01006KT 10SM CLR 12/06 A3025 RMK AO2 =
2018-10-16 10:55 METAR KJYO 161455Z AUTO 34005KT 10SM CLR 12/05 A3025 RMK AO2 =
2018-10-16 10:35 METAR KJYO 161435Z AUTO 35009KT 10SM CLR 11/05 A3025 RMK AO2 =
2018-10-16 10:15 METAR KJYO 161415Z AUTO 36008G15KT 10SM CLR 11/05 A3025 RMK AO2 =
2018-10-16 09:55 METAR KJYO 161355Z AUTO 35009G16KT 10SM CLR 11/05 A3025 RMK AO2 =
2018-10-16 09:35 METAR KJYO 161335Z AUTO 36007KT 10SM CLR 11/05 A3024 RMK AO2 =
2018-10-16 09:15 METAR KJYO 161315Z AUTO 36007KT 10SM CLR 11/05 A3024 RMK AO2 =
2018-10-16 08:55 METAR KJYO 161255Z AUTO 02006KT 10SM CLR 11/05 A3025 RMK AO2 =
2018-10-16 08:35 METAR KJYO 161235Z AUTO 01007KT 10SM CLR 11/06 A3024 RMK AO2 =
2018-10-16 08:15 METAR KJYO 161215Z AUTO 35009KT 10SM CLR 11/05 A3023 RMK AO2 =
2018-10-16 07:55 METAR KJYO 161155Z AUTO 05004KT 10SM CLR 11/06 A3022 RMK AO2 =
2018-10-16 07:35 METAR KJYO 161135Z AUTO 36008G16KT 10SM CLR 11/06 A3021 RMK AO2 =
2018-10-16 07:15 METAR KJYO 161115Z AUTO 36009G15KT 10SM CLR 11/06 A3021 RMK AO2 =
2018-10-16 06:55 METAR KJYO 161055Z AUTO 35011G15KT 10SM CLR 11/06 A3020 RMK AO2 =
2018-10-16 06:35 METAR KJYO 161035Z AUTO 34011KT 10SM CLR 12/06 A3019 RMK AO2 =
2018-10-16 06:15 METAR KJYO 161015Z AUTO 36008KT 10SM CLR 12/06 A3020 RMK AO2 =
2018-10-16 05:55 METAR KJYO 160955Z AUTO 35006KT 10SM CLR 12/06 A3018 RMK AO2 =
2018-10-16 05:35 METAR KJYO 160935Z AUTO 36009G14KT 10SM CLR 12/06 A3018 RMK AO2 =
2018-10-16 05:15 METAR KJYO 160915Z AUTO 01006KT 10SM CLR 12/06 A3017 RMK AO2 =
2018-10-16 04:55 METAR KJYO 160855Z AUTO 36007KT 10SM CLR 12/07 A3016 RMK AO2 =
2018-10-16 04:35 METAR KJYO 160835Z AUTO 35012G17KT 10SM CLR 13/07 A3015 RMK AO2 =
2018-10-16 04:15 METAR KJYO 160815Z AUTO 36008KT 10SM CLR 13/07 A3015 RMK AO2 =

Support USWX by starting your Amazon purchase here.